Time;durP1;ratioP1;P1;durP2;ratioP2;P2;SDS_P1;SDS_P2;PMS_P1;PMS_P2;Temp;Humidity;BMP_temperature;BMP_pressure;BME280_temperature;BME280_humidity;BME280_pressure;Samples;Min_cycle;Max_cycle;Signal;HPM_P1;HPM_P2
2019/08/01 00:00:21;;;;;;;9.45;8.45;;;;;;;13.11;100;95483.04;;;;
2019/08/01 00:01:47;;;;;;;9.45;8.45;;;;;;;13.11;100;95483.04;;;;
2019/08/01 00:02:48;;;;;;;9.45;8.45;;;;;;;13.11;100;95483.04;;;;
2019/08/01 00:03:49;;;;;;;9.45;8.45;;;;;;;13.11;100;95483.04;;;;
2019/08/01 00:04:51;;;;;;;9.45;8.45;;;;;;;13.11;100;95483.04;;;;
2019/08/01 00:05:52;;;;;;;9.45;8.45;;;;;;;13.11;100;95483.04;;;;
2019/08/01 00:06:53;;;;;;;9.45;8.45;;;;;;;13.11;100;95483.04;;;;
2019/08/01 00:07:54;;;;;;;9.45;8.45;;;;;;;13.11;100;95483.04;;;;
2019/08/01 00:08:55;;;;;;;9.45;8.45;;;;;;;13.11;100;95483.04;;;;
2019/08/01 00:09:56;;;;;;;9.45;8.45;;;;;;;13.11;100;95483.04;;;;
2019/08/01 00:10:58;;;;;;;8.299999;7.55;;;;;;;13.1;100;95485.58;;;;
2019/08/01 00:11:59;;;;;;;8.299999;7.55;;;;;;;13.1;100;95485.58;;;;
2019/08/01 00:13:00;;;;;;;8.299999;7.55;;;;;;;13.1;100;95485.58;;;;
2019/08/01 00:14:01;;;;;;;8.299999;7.55;;;;;;;13.1;100;95485.58;;;;
2019/08/01 00:15:02;;;;;;;8.299999;7.55;;;;;;;13.1;100;95485.58;;;;
2019/08/01 00:16:04;;;;;;;8.299999;7.55;;;;;;;13.1;100;95485.58;;;;
2019/08/01 00:17:05;;;;;;;8.299999;7.55;;;;;;;13.1;100;95485.58;;;;
2019/08/01 00:18:06;;;;;;;8.299999;7.55;;;;;;;13.1;100;95485.58;;;;
2019/08/01 00:19:08;;;;;;;8.299999;7.55;;;;;;;13.1;100;95485.58;;;;
2019/08/01 00:20:09;;;;;;;8.299999;7.55;;;;;;;13.1;100;95485.58;;;;
2019/08/01 00:21:10;;;;;;;8.6;7.5;;;;;;;13.03;100;95493.48;;;;
2019/08/01 00:22:11;;;;;;;8.6;7.5;;;;;;;13.03;100;95493.48;;;;
2019/08/01 00:23:12;;;;;;;8.6;7.5;;;;;;;13.03;100;95493.48;;;;
2019/08/01 00:24:14;;;;;;;8.6;7.5;;;;;;;13.03;100;95493.48;;;;
2019/08/01 00:25:15;;;;;;;8.6;7.5;;;;;;;13.03;100;95493.48;;;;
2019/08/01 00:26:16;;;;;;;8.6;7.5;;;;;;;13.03;100;95493.48;;;;
2019/08/01 00:27:17;;;;;;;8.6;7.5;;;;;;;13.03;100;95493.48;;;;
2019/08/01 00:28:18;;;;;;;8.6;7.5;;;;;;;13.03;100;95493.48;;;;
2019/08/01 00:29:19;;;;;;;8.6;7.5;;;;;;;13.03;100;95493.48;;;;
2019/08/01 00:30:20;;;;;;;8.6;7.5;;;;;;;13.03;100;95493.48;;;;
2019/08/01 00:31:22;;;;;;;8.6;7.5;;;;;;;13.03;100;95493.48;;;;
2019/08/01 00:32:23;;;;;;;8.050001;7.25;;;;;;;13.05;100;95495.42;;;;
2019/08/01 00:33:24;;;;;;;8.050001;7.25;;;;;;;13.05;100;95495.42;;;;
2019/08/01 00:34:25;;;;;;;8.050001;7.25;;;;;;;13.05;100;95495.42;;;;
2019/08/01 00:35:26;;;;;;;8.050001;7.25;;;;;;;13.05;100;95495.42;;;;
2019/08/01 00:36:27;;;;;;;8.050001;7.25;;;;;;;13.05;100;95495.42;;;;
2019/08/01 00:37:28;;;;;;;8.050001;7.25;;;;;;;13.05;100;95495.42;;;;
2019/08/01 00:38:29;;;;;;;8.050001;7.25;;;;;;;13.05;100;95495.42;;;;
2019/08/01 00:39:31;;;;;;;8.050001;7.25;;;;;;;13.05;100;95495.42;;;;
2019/08/01 00:40:32;;;;;;;8.050001;7.25;;;;;;;13.05;100;95495.42;;;;
2019/08/01 00:41:33;;;;;;;8.050001;7.25;;;;;;;13.05;100;95495.42;;;;
2019/08/01 00:42:34;;;;;;;8.5;7.700001;;;;;;;13.02;100;95501.75;;;;
2019/08/01 00:43:35;;;;;;;8.5;7.700001;;;;;;;13.02;100;95501.75;;;;
2019/08/01 00:44:36;;;;;;;8.5;7.700001;;;;;;;13.02;100;95501.75;;;;
2019/08/01 00:45:37;;;;;;;8.5;7.700001;;;;;;;13.02;100;95501.75;;;;
2019/08/01 00:46:38;;;;;;;8.5;7.700001;;;;;;;13.02;100;95501.75;;;;
2019/08/01 00:47:39;;;;;;;8.5;7.700001;;;;;;;13.02;100;95501.75;;;;
2019/08/01 00:48:40;;;;;;;8.5;7.700001;;;;;;;13.02;100;95501.75;;;;
2019/08/01 00:49:42;;;;;;;8.5;7.700001;;;;;;;13.02;100;95501.75;;;;
2019/08/01 00:50:43;;;;;;;8.5;7.700001;;;;;;;13.02;100;95501.75;;;;
2019/08/01 00:51:44;;;;;;;8.5;7.700001;;;;;;;13.02;100;95501.75;;;;
2019/08/01 00:52:45;;;;;;;8.5;7.700001;;;;;;;13.02;100;95501.75;;;;
2019/08/01 00:53:46;;;;;;;9.299999;8.400001;;;;;;;13.07;100;95496.83;;;;
2019/08/01 00:54:47;;;;;;;9.299999;8.400001;;;;;;;13.07;100;95496.83;;;;
2019/08/01 00:55:48;;;;;;;9.299999;8.400001;;;;;;;13.07;100;95496.83;;;;
2019/08/01 00:56:50;;;;;;;9.299999;8.400001;;;;;;;13.07;100;95496.83;;;;
2019/08/01 00:57:51;;;;;;;9.299999;8.400001;;;;;;;13.07;100;95496.83;;;;
2019/08/01 00:58:52;;;;;;;9.299999;8.400001;;;;;;;13.07;100;95496.83;;;;
2019/08/01 00:59:54;;;;;;;9.299999;8.400001;;;;;;;13.07;100;95496.83;;;;
2019/08/01 01:00:55;;;;;;;9.299999;8.400001;;;;;;;13.07;100;95496.83;;;;
2019/08/01 01:02:07;;;;;;;9.299999;8.400001;;;;;;;13.07;100;95496.83;;;;
2019/08/01 01:03:09;;;;;;;9.299999;8.400001;;;;;;;13.07;100;95496.83;;;;
2019/08/01 01:04:10;;;;;;;8.9;7.749999;;;;;;;13.11;100;95486.31;;;;
2019/08/01 01:05:11;;;;;;;8.9;7.749999;;;;;;;13.11;100;95486.31;;;;
2019/08/01 01:06:17;;;;;;;8.9;7.749999;;;;;;;13.11;100;95486.31;;;;
2019/08/01 01:07:19;;;;;;;8.9;7.749999;;;;;;;13.11;100;95486.31;;;;
2019/08/01 01:08:20;;;;;;;8.9;7.749999;;;;;;;13.11;100;95486.31;;;;
2019/08/01 01:09:21;;;;;;;8.9;7.749999;;;;;;;13.11;100;95486.31;;;;
2019/08/01 01:10:23;;;;;;;8.9;7.749999;;;;;;;13.11;100;95486.31;;;;
2019/08/01 01:11:24;;;;;;;8.9;7.749999;;;;;;;13.11;100;95486.31;;;;
2019/08/01 01:12:25;;;;;;;8.9;7.749999;;;;;;;13.11;100;95486.31;;;;
2019/08/01 01:13:26;;;;;;;8.9;7.749999;;;;;;;13.11;100;95486.31;;;;
2019/08/01 01:14:28;;;;;;;9;7.799999;;;;;;;13.14;100;95482.67;;;;
2019/08/01 01:15:29;;;;;;;9;7.799999;;;;;;;13.14;100;95482.67;;;;
2019/08/01 01:16:30;;;;;;;9;7.799999;;;;;;;13.14;100;95482.67;;;;
2019/08/01 01:17:31;;;;;;;9;7.799999;;;;;;;13.14;100;95482.67;;;;
2019/08/01 01:18:32;;;;;;;9;7.799999;;;;;;;13.14;100;95482.67;;;;
2019/08/01 01:19:34;;;;;;;9;7.799999;;;;;;;13.14;100;95482.67;;;;
2019/08/01 01:20:35;;;;;;;9;7.799999;;;;;;;13.14;100;95482.67;;;;
2019/08/01 01:21:36;;;;;;;9;7.799999;;;;;;;13.14;100;95482.67;;;;
2019/08/01 01:22:37;;;;;;;9;7.799999;;;;;;;13.14;100;95482.67;;;;
2019/08/01 01:23:38;;;;;;;9;7.799999;;;;;;;13.14;100;95482.67;;;;
2019/08/01 01:24:39;;;;;;;9;7.799999;;;;;;;13.14;100;95482.67;;;;
2019/08/01 01:25:41;;;;;;;9.249998;8.349999;;;;;;;13.11;100;95484.01;;;;
2019/08/01 01:26:42;;;;;;;9.249998;8.349999;;;;;;;13.11;100;95484.01;;;;
2019/08/01 01:27:43;;;;;;;9.249998;8.349999;;;;;;;13.11;100;95484.01;;;;
2019/08/01 01:28:44;;;;;;;9.249998;8.349999;;;;;;;13.11;100;95484.01;;;;
2019/08/01 01:29:45;;;;;;;9.249998;8.349999;;;;;;;13.11;100;95484.01;;;;
2019/08/01 01:30:47;;;;;;;9.249998;8.349999;;;;;;;13.11;100;95484.01;;;;
2019/08/01 01:31:48;;;;;;;9.249998;8.349999;;;;;;;13.11;100;95484.01;;;;
2019/08/01 01:32:49;;;;;;;9.249998;8.349999;;;;;;;13.11;100;95484.01;;;;
2019/08/01 01:33:50;;;;;;;9.249998;8.349999;;;;;;;13.11;100;95484.01;;;;
2019/08/01 01:34:52;;;;;;;9.249998;8.349999;;;;;;;13.11;100;95484.01;;;;
2019/08/01 01:35:53;;;;;;;9.65;8.65;;;;;;;13.18;100;95484.25;;;;
2019/08/01 01:36:54;;;;;;;9.65;8.65;;;;;;;13.18;100;95484.25;;;;
2019/08/01 01:37:55;;;;;;;9.65;8.65;;;;;;;13.18;100;95484.25;;;;
2019/08/01 01:38:56;;;;;;;9.65;8.65;;;;;;;13.18;100;95484.25;;;;
2019/08/01 01:39:57;;;;;;;9.65;8.65;;;;;;;13.18;100;95484.25;;;;
2019/08/01 01:40:58;;;;;;;9.65;8.65;;;;;;;13.18;100;95484.25;;;;
2019/08/01 01:42:00;;;;;;;9.65;8.65;;;;;;;13.18;100;95484.25;;;;
2019/08/01 01:43:01;;;;;;;9.65;8.65;;;;;;;13.18;100;95484.25;;;;
2019/08/01 01:44:02;;;;;;;9.65;8.65;;;;;;;13.18;100;95484.25;;;;
2019/08/01 01:45:03;;;;;;;9.65;8.65;;;;;;;13.18;100;95484.25;;;;
2019/08/01 01:46:05;;;;;;;9.9;8.9;;;;;;;13.2;100;95476.28;;;;
2019/08/01 01:47:06;;;;;;;9.9;8.9;;;;;;;13.2;100;95476.28;;;;
2019/08/01 01:48:07;;;;;;;9.9;8.9;;;;;;;13.2;100;95476.28;;;;
2019/08/01 01:49:08;;;;;;;9.9;8.9;;;;;;;13.2;100;95476.28;;;;
2019/08/01 01:50:09;;;;;;;9.9;8.9;;;;;;;13.2;100;95476.28;;;;
2019/08/01 01:51:11;;;;;;;9.9;8.9;;;;;;;13.2;100;95476.28;;;;
2019/08/01 01:52:12;;;;;;;9.9;8.9;;;;;;;13.2;100;95476.28;;;;
2019/08/01 01:53:14;;;;;;;9.9;8.9;;;;;;;13.2;100;95476.28;;;;
2019/08/01 01:54:15;;;;;;;9.9;8.9;;;;;;;13.2;100;95476.28;;;;
2019/08/01 01:55:16;;;;;;;9.9;8.9;;;;;;;13.2;100;95476.28;;;;
2019/08/01 01:56:18;;;;;;;9.9;8.9;;;;;;;13.2;100;95476.28;;;;
2019/08/01 01:57:20;;;;;;;8.5;7.600001;;;;;;;13.23;100;95477.55;;;;
2019/08/01 01:58:21;;;;;;;8.5;7.600001;;;;;;;13.23;100;95477.55;;;;
2019/08/01 01:59:22;;;;;;;8.5;7.600001;;;;;;;13.23;100;95477.55;;;;
2019/08/01 02:00:23;;;;;;;8.5;7.600001;;;;;;;13.23;100;95477.55;;;;
2019/08/01 02:01:25;;;;;;;8.5;7.600001;;;;;;;13.23;100;95477.55;;;;
2019/08/01 02:02:26;;;;;;;8.5;7.600001;;;;;;;13.23;100;95477.55;;;;
2019/08/01 02:03:27;;;;;;;8.5;7.600001;;;;;;;13.23;100;95477.55;;;;
2019/08/01 02:04:29;;;;;;;8.5;7.600001;;;;;;;13.23;100;95477.55;;;;
2019/08/01 02:05:30;;;;;;;8.5;7.600001;;;;;;;13.23;100;95477.55;;;;
2019/08/01 02:06:31;;;;;;;8.5;7.600001;;;;;;;13.23;100;95477.55;;;;
2019/08/01 02:07:32;;;;;;;9.4;8.499998;;;;;;;13.17;100;95477.73;;;;
2019/08/01 02:08:33;;;;;;;9.4;8.499998;;;;;;;13.17;100;95477.73;;;;
2019/08/01 02:09:35;;;;;;;9.4;8.499998;;;;;;;13.17;100;95477.73;;;;
2019/08/01 02:10:36;;;;;;;9.4;8.499998;;;;;;;13.17;100;95477.73;;;;
2019/08/01 02:11:37;;;;;;;9.4;8.499998;;;;;;;13.17;100;95477.73;;;;
2019/08/01 02:12:38;;;;;;;9.4;8.499998;;;;;;;13.17;100;95477.73;;;;
2019/08/01 02:13:39;;;;;;;9.4;8.499998;;;;;;;13.17;100;95477.73;;;;
2019/08/01 02:14:41;;;;;;;9.4;8.499998;;;;;;;13.17;100;95477.73;;;;
2019/08/01 02:15:42;;;;;;;9.4;8.499998;;;;;;;13.17;100;95477.73;;;;
2019/08/01 02:16:48;;;;;;;9.4;8.499998;;;;;;;13.17;100;95477.73;;;;
2019/08/01 02:17:49;;;;;;;8;7.199999;;;;;;;13.12;100;95482.51;;;;
2019/08/01 02:18:50;;;;;;;8;7.199999;;;;;;;13.12;100;95482.51;;;;
2019/08/01 02:19:52;;;;;;;8;7.199999;;;;;;;13.12;100;95482.51;;;;
2019/08/01 02:20:53;;;;;;;8;7.199999;;;;;;;13.12;100;95482.51;;;;
2019/08/01 02:21:55;;;;;;;8;7.199999;;;;;;;13.12;100;95482.51;;;;
2019/08/01 02:22:56;;;;;;;8;7.199999;;;;;;;13.12;100;95482.51;;;;
2019/08/01 02:23:57;;;;;;;8;7.199999;;;;;;;13.12;100;95482.51;;;;
2019/08/01 02:24:58;;;;;;;8;7.199999;;;;;;;13.12;100;95482.51;;;;
2019/08/01 02:26:00;;;;;;;8;7.199999;;;;;;;13.12;100;95482.51;;;;
2019/08/01 02:27:01;;;;;;;8;7.199999;;;;;;;13.12;100;95482.51;;;;
2019/08/01 02:28:02;;;;;;;8;7.199999;;;;;;;13.12;100;95482.51;;;;
2019/08/01 02:29:03;;;;;;;8.9;7.95;;;;;;;13.03;100;95483.04;;;;
2019/08/01 02:30:04;;;;;;;8.9;7.95;;;;;;;13.03;100;95483.04;;;;
2019/08/01 02:31:06;;;;;;;8.9;7.95;;;;;;;13.03;100;95483.04;;;;
2019/08/01 02:32:08;;;;;;;8.9;7.95;;;;;;;13.03;100;95483.04;;;;
2019/08/01 02:33:09;;;;;;;8.9;7.95;;;;;;;13.03;100;95483.04;;;;
2019/08/01 02:34:10;;;;;;;8.9;7.95;;;;;;;13.03;100;95483.04;;;;
2019/08/01 02:35:11;;;;;;;8.9;7.95;;;;;;;13.03;100;95483.04;;;;
2019/08/01 02:36:13;;;;;;;8.9;7.95;;;;;;;13.03;100;95483.04;;;;
2019/08/01 02:37:14;;;;;;;8.9;7.95;;;;;;;13.03;100;95483.04;;;;
2019/08/01 02:38:15;;;;;;;8.9;7.95;;;;;;;13.03;100;95483.04;;;;
2019/08/01 02:39:16;;;;;;;10.85;9.5;;;;;;;13.11;100;95475.05;;;;
2019/08/01 02:40:18;;;;;;;10.85;9.5;;;;;;;13.11;100;95475.05;;;;
2019/08/01 02:41:19;;;;;;;10.85;9.5;;;;;;;13.11;100;95475.05;;;;
2019/08/01 02:42:21;;;;;;;10.85;9.5;;;;;;;13.11;100;95475.05;;;;
2019/08/01 02:43:22;;;;;;;10.85;9.5;;;;;;;13.11;100;95475.05;;;;
2019/08/01 02:44:24;;;;;;;10.85;9.5;;;;;;;13.11;100;95475.05;;;;
2019/08/01 02:45:25;;;;;;;10.85;9.5;;;;;;;13.11;100;95475.05;;;;
2019/08/01 02:46:35;;;;;;;10.85;9.5;;;;;;;13.11;100;95475.05;;;;
2019/08/01 02:47:36;;;;;;;10.85;9.5;;;;;;;13.11;100;95475.05;;;;
2019/08/01 02:48:37;;;;;;;10.85;9.5;;;;;;;13.11;100;95475.05;;;;
2019/08/01 02:49:38;;;;;;;10;8.349999;;;;;;;13.12;100;95478.03;;;;
2019/08/01 02:50:40;;;;;;;10;8.349999;;;;;;;13.12;100;95478.03;;;;
2019/08/01 02:51:41;;;;;;;10;8.349999;;;;;;;13.12;100;95478.03;;;;
2019/08/01 02:52:42;;;;;;;10;8.349999;;;;;;;13.12;100;95478.03;;;;
2019/08/01 02:53:43;;;;;;;10;8.349999;;;;;;;13.12;100;95478.03;;;;
2019/08/01 02:54:44;;;;;;;10;8.349999;;;;;;;13.12;100;95478.03;;;;
2019/08/01 02:55:45;;;;;;;10;8.349999;;;;;;;13.12;100;95478.03;;;;
2019/08/01 02:56:46;;;;;;;10;8.349999;;;;;;;13.12;100;95478.03;;;;
2019/08/01 02:57:47;;;;;;;10;8.349999;;;;;;;13.12;100;95478.03;;;;
2019/08/01 02:58:48;;;;;;;10;8.349999;;;;;;;13.12;100;95478.03;;;;
2019/08/01 02:59:49;;;;;;;10;8.349999;;;;;;;13.12;100;95478.03;;;;
2019/08/01 03:00:51;;;;;;;8.000001;7.249999;;;;;;;13.12;100;95476.15;;;;
2019/08/01 03:01:53;;;;;;;8.000001;7.249999;;;;;;;13.12;100;95476.15;;;;
2019/08/01 03:02:54;;;;;;;8.000001;7.249999;;;;;;;13.12;100;95476.15;;;;
2019/08/01 03:03:55;;;;;;;8.000001;7.249999;;;;;;;13.12;100;95476.15;;;;
2019/08/01 03:04:56;;;;;;;8.000001;7.249999;;;;;;;13.12;100;95476.15;;;;
2019/08/01 03:05:57;;;;;;;8.000001;7.249999;;;;;;;13.12;100;95476.15;;;;
2019/08/01 03:06:59;;;;;;;8.000001;7.249999;;;;;;;13.12;100;95476.15;;;;
2019/08/01 03:08:00;;;;;;;8.000001;7.249999;;;;;;;13.12;100;95476.15;;;;
2019/08/01 03:09:01;;;;;;;8.000001;7.249999;;;;;;;13.12;100;95476.15;;;;
2019/08/01 03:10:03;;;;;;;8.000001;7.249999;;;;;;;13.12;100;95476.15;;;;
2019/08/01 03:11:05;;;;;;;10;9.049999;;;;;;;13.08;100;95470.09;;;;
2019/08/01 03:12:06;;;;;;;10;9.049999;;;;;;;13.08;100;95470.09;;;;
2019/08/01 03:13:07;;;;;;;10;9.049999;;;;;;;13.08;100;95470.09;;;;
2019/08/01 03:14:08;;;;;;;10;9.049999;;;;;;;13.08;100;95470.09;;;;
2019/08/01 03:15:09;;;;;;;10;9.049999;;;;;;;13.08;100;95470.09;;;;
2019/08/01 03:16:10;;;;;;;10;9.049999;;;;;;;13.08;100;95470.09;;;;
2019/08/01 03:17:11;;;;;;;10;9.049999;;;;;;;13.08;100;95470.09;;;;
2019/08/01 03:18:12;;;;;;;10;9.049999;;;;;;;13.08;100;95470.09;;;;
2019/08/01 03:19:14;;;;;;;10;9.049999;;;;;;;13.08;100;95470.09;;;;
2019/08/01 03:20:15;;;;;;;10;9.049999;;;;;;;13.08;100;95470.09;;;;
2019/08/01 03:21:16;;;;;;;10;9.049999;;;;;;;13.08;100;95470.09;;;;
2019/08/01 03:22:17;;;;;;;10.2;9.200001;;;;;;;13.13;100;95460.72;;;;
2019/08/01 03:23:18;;;;;;;10.2;9.200001;;;;;;;13.13;100;95460.72;;;;
2019/08/01 03:24:20;;;;;;;10.2;9.200001;;;;;;;13.13;100;95460.72;;;;
2019/08/01 03:25:21;;;;;;;10.2;9.200001;;;;;;;13.13;100;95460.72;;;;
2019/08/01 03:26:22;;;;;;;10.2;9.200001;;;;;;;13.13;100;95460.72;;;;
2019/08/01 03:27:23;;;;;;;10.2;9.200001;;;;;;;13.13;100;95460.72;;;;
2019/08/01 03:28:24;;;;;;;10.2;9.200001;;;;;;;13.13;100;95460.72;;;;
2019/08/01 03:29:25;;;;;;;10.2;9.200001;;;;;;;13.13;100;95460.72;;;;
2019/08/01 03:30:26;;;;;;;10.2;9.200001;;;;;;;13.13;100;95460.72;;;;
2019/08/01 03:31:28;;;;;;;10.2;9.200001;;;;;;;13.13;100;95460.72;;;;
2019/08/01 03:32:29;;;;;;;9.050001;8.149999;;;;;;;13.05;100;95468.3;;;;
2019/08/01 03:33:30;;;;;;;9.050001;8.149999;;;;;;;13.05;100;95468.3;;;;
2019/08/01 03:34:31;;;;;;;9.050001;8.149999;;;;;;;13.05;100;95468.3;;;;
2019/08/01 03:35:32;;;;;;;9.050001;8.149999;;;;;;;13.05;100;95468.3;;;;
2019/08/01 03:36:33;;;;;;;9.050001;8.149999;;;;;;;13.05;100;95468.3;;;;
2019/08/01 03:37:34;;;;;;;9.050001;8.149999;;;;;;;13.05;100;95468.3;;;;
2019/08/01 03:38:35;;;;;;;9.050001;8.149999;;;;;;;13.05;100;95468.3;;;;
2019/08/01 03:39:37;;;;;;;9.050001;8.149999;;;;;;;13.05;100;95468.3;;;;
2019/08/01 03:40:38;;;;;;;9.050001;8.149999;;;;;;;13.05;100;95468.3;;;;
2019/08/01 03:41:39;;;;;;;9.050001;8.149999;;;;;;;13.05;100;95468.3;;;;
2019/08/01 03:42:40;;;;;;;10.45;8.849999;;;;;;;13.03;100;95468.66;;;;
2019/08/01 03:43:41;;;;;;;10.45;8.849999;;;;;;;13.03;100;95468.66;;;;
2019/08/01 03:44:42;;;;;;;10.45;8.849999;;;;;;;13.03;100;95468.66;;;;
2019/08/01 03:45:43;;;;;;;10.45;8.849999;;;;;;;13.03;100;95468.66;;;;
2019/08/01 03:46:44;;;;;;;10.45;8.849999;;;;;;;13.03;100;95468.66;;;;
2019/08/01 03:47:45;;;;;;;10.45;8.849999;;;;;;;13.03;100;95468.66;;;;
2019/08/01 03:48:46;;;;;;;10.45;8.849999;;;;;;;13.03;100;95468.66;;;;
2019/08/01 03:49:47;;;;;;;10.45;8.849999;;;;;;;13.03;100;95468.66;;;;
2019/08/01 03:50:49;;;;;;;10.45;8.849999;;;;;;;13.03;100;95468.66;;;;
2019/08/01 03:51:50;;;;;;;10.45;8.849999;;;;;;;13.03;100;95468.66;;;;
2019/08/01 03:52:51;;;;;;;10.45;8.849999;;;;;;;13.03;100;95468.66;;;;
2019/08/01 03:53:52;;;;;;;9.299999;8.400001;;;;;;;12.96;100;95465.26;;;;
2019/08/01 03:54:53;;;;;;;9.299999;8.400001;;;;;;;12.96;100;95465.26;;;;
2019/08/01 03:55:54;;;;;;;9.299999;8.400001;;;;;;;12.96;100;95465.26;;;;
2019/08/01 03:56:55;;;;;;;9.299999;8.400001;;;;;;;12.96;100;95465.26;;;;
2019/08/01 03:57:56;;;;;;;9.299999;8.400001;;;;;;;12.96;100;95465.26;;;;
2019/08/01 03:58:58;;;;;;;9.299999;8.400001;;;;;;;12.96;100;95465.26;;;;
2019/08/01 03:59:59;;;;;;;9.299999;8.400001;;;;;;;12.96;100;95465.26;;;;
2019/08/01 04:01:00;;;;;;;9.299999;8.400001;;;;;;;12.96;100;95465.26;;;;
2019/08/01 04:02:01;;;;;;;9.299999;8.400001;;;;;;;12.96;100;95465.26;;;;
2019/08/01 04:03:02;;;;;;;9.299999;8.400001;;;;;;;12.96;100;95465.26;;;;
2019/08/01 04:04:03;;;;;;;10.75;8.049999;;;;;;;12.96;100;95474.64;;;;
2019/08/01 04:05:04;;;;;;;10.75;8.049999;;;;;;;12.96;100;95474.64;;;;
2019/08/01 04:06:06;;;;;;;10.75;8.049999;;;;;;;12.96;100;95474.64;;;;
2019/08/01 04:07:07;;;;;;;10.75;8.049999;;;;;;;12.96;100;95474.64;;;;
2019/08/01 04:08:09;;;;;;;10.75;8.049999;;;;;;;12.96;100;95474.64;;;;
2019/08/01 04:09:10;;;;;;;10.75;8.049999;;;;;;;12.96;100;95474.64;;;;
2019/08/01 04:10:11;;;;;;;10.75;8.049999;;;;;;;12.96;100;95474.64;;;;
2019/08/01 04:11:12;;;;;;;10.75;8.049999;;;;;;;12.96;100;95474.64;;;;
2019/08/01 04:12:14;;;;;;;10.75;8.049999;;;;;;;12.96;100;95474.64;;;;
2019/08/01 04:13:15;;;;;;;10.75;8.049999;;;;;;;12.96;100;95474.64;;;;
2019/08/01 04:14:16;;;;;;;10.75;8.049999;;;;;;;12.96;100;95474.64;;;;
2019/08/01 04:15:18;;;;;;;9.299999;8.4;;;;;;;12.92;100;95476.31;;;;
2019/08/01 04:16:19;;;;;;;9.299999;8.4;;;;;;;12.92;100;95476.31;;;;
2019/08/01 04:17:20;;;;;;;9.299999;8.4;;;;;;;12.92;100;95476.31;;;;
2019/08/01 04:18:21;;;;;;;9.299999;8.4;;;;;;;12.92;100;95476.31;;;;
2019/08/01 04:19:22;;;;;;;9.299999;8.4;;;;;;;12.92;100;95476.31;;;;
2019/08/01 04:20:23;;;;;;;9.299999;8.4;;;;;;;12.92;100;95476.31;;;;
2019/08/01 04:21:34;;;;;;;9.299999;8.4;;;;;;;12.92;100;95476.31;;;;
2019/08/01 04:22:35;;;;;;;9.299999;8.4;;;;;;;12.92;100;95476.31;;;;
2019/08/01 04:23:36;;;;;;;9.299999;8.4;;;;;;;12.92;100;95476.31;;;;
2019/08/01 04:24:37;;;;;;;9.299999;8.4;;;;;;;12.92;100;95476.31;;;;
2019/08/01 04:25:38;;;;;;;8.25;7.500001;;;;;;;12.95;100;95479.91;;;;
2019/08/01 04:26:39;;;;;;;8.25;7.500001;;;;;;;12.95;100;95479.91;;;;
2019/08/01 04:27:46;;;;;;;8.25;7.500001;;;;;;;12.95;100;95479.91;;;;
2019/08/01 04:28:47;;;;;;;8.25;7.500001;;;;;;;12.95;100;95479.91;;;;
2019/08/01 04:29:48;;;;;;;8.25;7.500001;;;;;;;12.95;100;95479.91;;;;
2019/08/01 04:30:49;;;;;;;8.25;7.500001;;;;;;;12.95;100;95479.91;;;;
2019/08/01 04:31:50;;;;;;;8.25;7.500001;;;;;;;12.95;100;95479.91;;;;
2019/08/01 04:32:51;;;;;;;8.25;7.500001;;;;;;;12.95;100;95479.91;;;;
2019/08/01 04:33:52;;;;;;;8.25;7.500001;;;;;;;12.95;100;95479.91;;;;
2019/08/01 04:34:54;;;;;;;8.25;7.500001;;;;;;;12.95;100;95479.91;;;;
2019/08/01 04:35:55;;;;;;;8.299999;7.6;;;;;;;12.95;100;95487.89;;;;
2019/08/01 04:36:56;;;;;;;8.299999;7.6;;;;;;;12.95;100;95487.89;;;;
2019/08/01 04:37:57;;;;;;;8.299999;7.6;;;;;;;12.95;100;95487.89;;;;
2019/08/01 04:38:58;;;;;;;8.299999;7.6;;;;;;;12.95;100;95487.89;;;;
2019/08/01 04:39:59;;;;;;;8.299999;7.6;;;;;;;12.95;100;95487.89;;;;
2019/08/01 04:41:00;;;;;;;8.299999;7.6;;;;;;;12.95;100;95487.89;;;;
2019/08/01 04:42:01;;;;;;;8.299999;7.6;;;;;;;12.95;100;95487.89;;;;
2019/08/01 04:43:02;;;;;;;8.299999;7.6;;;;;;;12.95;100;95487.89;;;;
2019/08/01 04:44:03;;;;;;;8.299999;7.6;;;;;;;12.95;100;95487.89;;;;
2019/08/01 04:45:05;;;;;;;8.299999;7.6;;;;;;;12.95;100;95487.89;;;;
2019/08/01 04:46:06;;;;;;;8.299999;7.6;;;;;;;12.95;100;95487.89;;;;
2019/08/01 04:47:07;;;;;;;10.2;8.400001;;;;;;;13.12;100;95474.8;;;;
2019/08/01 04:48:08;;;;;;;10.2;8.400001;;;;;;;13.12;100;95474.8;;;;
2019/08/01 04:49:09;;;;;;;10.2;8.400001;;;;;;;13.12;100;95474.8;;;;
2019/08/01 04:50:10;;;;;;;10.2;8.400001;;;;;;;13.12;100;95474.8;;;;
2019/08/01 04:51:12;;;;;;;10.2;8.400001;;;;;;;13.12;100;95474.8;;;;
2019/08/01 04:52:13;;;;;;;10.2;8.400001;;;;;;;13.12;100;95474.8;;;;
2019/08/01 04:53:14;;;;;;;10.2;8.400001;;;;;;;13.12;100;95474.8;;;;
2019/08/01 04:54:15;;;;;;;10.2;8.400001;;;;;;;13.12;100;95474.8;;;;
2019/08/01 04:55:16;;;;;;;10.2;8.400001;;;;;;;13.12;100;95474.8;;;;
2019/08/01 04:56:18;;;;;;;10.2;8.400001;;;;;;;13.12;100;95474.8;;;;
2019/08/01 04:57:19;;;;;;;10.4;9.400002;;;;;;;13.35;100;95477.47;;;;
2019/08/01 04:58:20;;;;;;;10.4;9.400002;;;;;;;13.35;100;95477.47;;;;
2019/08/01 04:59:21;;;;;;;10.4;9.400002;;;;;;;13.35;100;95477.47;;;;
2019/08/01 05:00:22;;;;;;;10.4;9.400002;;;;;;;13.35;100;95477.47;;;;
2019/08/01 05:01:35;;;;;;;10.4;9.400002;;;;;;;13.35;100;95477.47;;;;
2019/08/01 05:02:36;;;;;;;10.4;9.400002;;;;;;;13.35;100;95477.47;;;;
2019/08/01 05:03:37;;;;;;;10.4;9.400002;;;;;;;13.35;100;95477.47;;;;
2019/08/01 05:04:38;;;;;;;10.4;9.400002;;;;;;;13.35;100;95477.47;;;;
2019/08/01 05:05:40;;;;;;;10.4;9.400002;;;;;;;13.35;100;95477.47;;;;
2019/08/01 05:06:41;;;;;;;10.4;9.400002;;;;;;;13.35;100;95477.47;;;;
2019/08/01 05:07:42;;;;;;;12.45;10.95;;;;;;;13.64;100;95468.11;;;;
2019/08/01 05:08:43;;;;;;;12.45;10.95;;;;;;;13.64;100;95468.11;;;;
2019/08/01 05:09:44;;;;;;;12.45;10.95;;;;;;;13.64;100;95468.11;;;;
2019/08/01 05:10:45;;;;;;;12.45;10.95;;;;;;;13.64;100;95468.11;;;;
2019/08/01 05:11:48;;;;;;;12.45;10.95;;;;;;;13.64;100;95468.11;;;;
2019/08/01 05:12:49;;;;;;;12.45;10.95;;;;;;;13.64;100;95468.11;;;;
2019/08/01 05:13:50;;;;;;;12.45;10.95;;;;;;;13.64;100;95468.11;;;;
2019/08/01 05:14:51;;;;;;;12.45;10.95;;;;;;;13.64;100;95468.11;;;;
2019/08/01 05:15:52;;;;;;;12.45;10.95;;;;;;;13.64;100;95468.11;;;;
2019/08/01 05:16:53;;;;;;;12.45;10.95;;;;;;;13.64;100;95468.11;;;;
2019/08/01 05:17:54;;;;;;;12.45;10.95;;;;;;;13.64;100;95468.11;;;;
2019/08/01 05:18:55;;;;;;;12.2;11;;;;;;;13.88;100;95473.08;;;;
2019/08/01 05:19:56;;;;;;;12.2;11;;;;;;;13.88;100;95473.08;;;;
2019/08/01 05:20:57;;;;;;;12.2;11;;;;;;;13.88;100;95473.08;;;;
2019/08/01 05:21:58;;;;;;;12.2;11;;;;;;;13.88;100;95473.08;;;;
2019/08/01 05:23:00;;;;;;;12.2;11;;;;;;;13.88;100;95473.08;;;;
2019/08/01 05:24:01;;;;;;;12.2;11;;;;;;;13.88;100;95473.08;;;;
2019/08/01 05:25:02;;;;;;;12.2;11;;;;;;;13.88;100;95473.08;;;;
2019/08/01 05:26:04;;;;;;;12.2;11;;;;;;;13.88;100;95473.08;;;;
2019/08/01 05:27:05;;;;;;;12.2;11;;;;;;;13.88;100;95473.08;;;;
2019/08/01 05:28:06;;;;;;;12.2;11;;;;;;;13.88;100;95473.08;;;;
2019/08/01 05:29:07;;;;;;;10.7;9.299998;;;;;;;14.26;100;95483.58;;;;
2019/08/01 05:30:08;;;;;;;10.7;9.299998;;;;;;;14.26;100;95483.58;;;;
2019/08/01 05:31:09;;;;;;;10.7;9.299998;;;;;;;14.26;100;95483.58;;;;
2019/08/01 05:32:11;;;;;;;10.7;9.299998;;;;;;;14.26;100;95483.58;;;;
2019/08/01 05:33:12;;;;;;;10.7;9.299998;;;;;;;14.26;100;95483.58;;;;
2019/08/01 05:34:13;;;;;;;10.7;9.299998;;;;;;;14.26;100;95483.58;;;;
2019/08/01 05:35:14;;;;;;;10.7;9.299998;;;;;;;14.26;100;95483.58;;;;
2019/08/01 05:36:15;;;;;;;10.7;9.299998;;;;;;;14.26;100;95483.58;;;;
2019/08/01 05:37:16;;;;;;;10.7;9.299998;;;;;;;14.26;100;95483.58;;;;
2019/08/01 05:38:17;;;;;;;10.7;9.299998;;;;;;;14.26;100;95483.58;;;;
2019/08/01 05:39:19;;;;;;;10.7;9.299998;;;;;;;14.26;100;95483.58;;;;
2019/08/01 05:40:20;;;;;;;10.6;9.500001;;;;;;;14.63;100;95488.64;;;;
2019/08/01 05:41:35;;;;;;;10.6;9.500001;;;;;;;14.63;100;95488.64;;;;
2019/08/01 05:42:36;;;;;;;10.6;9.500001;;;;;;;14.63;100;95488.64;;;;
2019/08/01 05:43:37;;;;;;;10.6;9.500001;;;;;;;14.63;100;95488.64;;;;
2019/08/01 05:44:38;;;;;;;10.6;9.500001;;;;;;;14.63;100;95488.64;;;;
2019/08/01 05:45:39;;;;;;;10.6;9.500001;;;;;;;14.63;100;95488.64;;;;
2019/08/01 05:46:41;;;;;;;10.6;9.500001;;;;;;;14.63;100;95488.64;;;;
2019/08/01 05:47:43;;;;;;;10.6;9.500001;;;;;;;14.63;100;95488.64;;;;
2019/08/01 05:48:44;;;;;;;10.6;9.500001;;;;;;;14.63;100;95488.64;;;;
2019/08/01 05:49:45;;;;;;;10.6;9.500001;;;;;;;14.63;100;95488.64;;;;
2019/08/01 05:50:46;;;;;;;8.299999;7.5;;;;;;;15.24;100;95483.26;;;;
2019/08/01 05:51:48;;;;;;;8.299999;7.5;;;;;;;15.24;100;95483.26;;;;
2019/08/01 05:52:49;;;;;;;8.299999;7.5;;;;;;;15.24;100;95483.26;;;;
2019/08/01 05:53:50;;;;;;;8.299999;7.5;;;;;;;15.24;100;95483.26;;;;
2019/08/01 05:54:51;;;;;;;8.299999;7.5;;;;;;;15.24;100;95483.26;;;;
2019/08/01 05:55:52;;;;;;;8.299999;7.5;;;;;;;15.24;100;95483.26;;;;
2019/08/01 05:56:53;;;;;;;8.299999;7.5;;;;;;;15.24;100;95483.26;;;;
2019/08/01 05:57:54;;;;;;;8.299999;7.5;;;;;;;15.24;100;95483.26;;;;